createdAt,value
2023-04-15T00:02:21.676Z,6.70
2023-04-15T00:05:23.443Z,6.70
2023-04-15T00:08:25.510Z,6.70
2023-04-15T00:11:27.192Z,6.70
2023-04-15T00:14:28.889Z,6.70
2023-04-15T00:17:31.031Z,6.70
2023-04-15T00:20:32.775Z,6.70
2023-04-15T00:23:36.403Z,6.70
2023-04-15T00:27:00.047Z,6.80
2023-04-15T00:30:02.117Z,6.80
2023-04-15T00:33:03.884Z,6.80
2023-04-15T00:36:07.303Z,6.80
2023-04-15T00:39:09.199Z,6.70
2023-04-15T00:42:10.989Z,6.70
2023-04-15T00:45:13.087Z,6.70
2023-04-15T00:48:15.590Z,6.70
2023-04-15T00:51:17.572Z,6.70
2023-04-15T00:54:19.365Z,6.80
2023-04-15T00:57:22.823Z,6.70
2023-04-15T01:00:25.103Z,6.80
2023-04-15T01:03:27.106Z,6.80
2023-04-15T01:06:29.508Z,6.80
2023-04-15T01:09:31.224Z,6.80
2023-04-15T01:12:34.249Z,6.80
2023-04-15T01:15:36.510Z,6.80
2023-04-15T01:18:38.786Z,6.80
2023-04-15T01:21:40.978Z,6.80
2023-04-15T01:24:49.405Z,6.80
2023-04-15T01:27:51.158Z,6.80
2023-04-15T01:31:09.978Z,6.80
2023-04-15T01:34:12.337Z,6.80
2023-04-15T01:37:14.072Z,6.70
2023-04-15T01:40:16.591Z,6.80
2023-04-15T01:43:19.018Z,6.80
2023-04-15T01:46:20.980Z,6.70
2023-04-15T01:49:22.756Z,6.70
2023-04-15T01:52:24.541Z,6.70
2023-04-15T01:55:26.266Z,6.70
2023-04-15T01:58:27.987Z,6.70
2023-04-15T02:01:29.769Z,6.70
2023-04-15T02:04:31.717Z,6.70
2023-04-15T02:07:33.529Z,6.60
2023-04-15T02:10:35.733Z,6.60
2023-04-15T02:13:37.858Z,6.60
2023-04-15T02:16:39.654Z,6.60
2023-04-15T02:19:41.418Z,6.60
2023-04-15T02:22:43.430Z,6.60
2023-04-15T02:25:53.545Z,6.60
2023-04-15T02:28:56.213Z,6.60
2023-04-15T02:31:58.021Z,6.50
2023-04-15T02:35:04.022Z,6.50
2023-04-15T02:38:05.810Z,6.40
2023-04-15T02:41:07.550Z,6.40
2023-04-15T02:44:11.324Z,6.40
2023-04-15T02:47:14.344Z,6.40
2023-04-15T02:50:16.611Z,6.30
2023-04-15T02:53:19.902Z,6.30
2023-04-15T02:56:23.235Z,6.40
2023-04-15T02:59:25.348Z,6.30
2023-04-15T03:02:27.191Z,6.30
2023-04-15T03:05:29.119Z,6.30
2023-04-15T03:08:30.930Z,6.30
2023-04-15T03:11:35.387Z,6.30
2023-04-15T03:14:38.115Z,6.30
2023-04-15T03:17:40.073Z,6.30
2023-04-15T03:20:41.978Z,6.30
2023-04-15T03:23:43.684Z,6.30
2023-04-15T03:26:45.460Z,6.30
2023-04-15T03:29:47.181Z,6.30
2023-04-15T03:32:48.859Z,6.30
2023-04-15T03:35:52.094Z,6.30
2023-04-15T03:38:53.997Z,6.30
2023-04-15T03:41:56.427Z,6.30
2023-04-15T03:44:58.170Z,6.20
2023-04-15T03:48:11.398Z,6.20
2023-04-15T03:51:18.135Z,6.20
2023-04-15T03:54:19.913Z,6.20
2023-04-15T03:57:21.658Z,6.20
2023-04-15T04:00:23.503Z,6.30
2023-04-15T04:03:25.469Z,6.20
2023-04-15T04:06:27.442Z,6.20
2023-04-15T04:09:29.242Z,6.20
2023-04-15T04:12:31.215Z,6.20
2023-04-15T04:15:33.046Z,6.10
2023-04-15T04:18:34.867Z,6.10
2023-04-15T04:21:36.691Z,6.10
2023-04-15T04:24:38.386Z,6.10
2023-04-15T04:27:40.365Z,6.10
2023-04-15T04:30:42.100Z,6.10
2023-04-15T04:33:43.897Z,6.10
2023-04-15T04:36:45.972Z,6.10
2023-04-15T04:39:47.751Z,6.10
2023-04-15T04:42:49.529Z,6.10
2023-04-15T04:45:51.284Z,6.10
2023-04-15T04:48:52.999Z,6.00
2023-04-15T04:51:54.987Z,6.00
2023-04-15T04:54:56.889Z,6.00
2023-04-15T04:57:58.640Z,6.00
2023-04-15T05:01:00.831Z,6.00
2023-04-15T05:04:05.091Z,6.00
2023-04-15T05:07:07.170Z,6.00
2023-04-15T05:10:09.402Z,6.00
2023-04-15T05:13:11.125Z,6.00
2023-04-15T05:16:12.888Z,6.10
2023-04-15T05:19:14.690Z,6.10
2023-04-15T05:22:16.398Z,6.10
2023-04-15T05:25:18.268Z,6.10
2023-04-15T05:28:20.050Z,6.10
2023-04-15T05:31:21.823Z,6.10
2023-04-15T05:34:23.630Z,6.10
2023-04-15T05:37:25.468Z,6.10
2023-04-15T05:40:27.311Z,6.10
2023-04-15T05:43:29.125Z,6.20
2023-04-15T05:46:30.968Z,6.20
2023-04-15T05:53:55.073Z,6.10
2023-04-15T05:56:57.670Z,6.10
2023-04-15T05:59:59.446Z,6.10
2023-04-15T06:03:01.333Z,6.10
2023-04-15T06:06:03.657Z,6.10
2023-04-15T06:09:05.398Z,6.20
2023-04-15T06:12:12.028Z,6.20
2023-04-15T06:15:13.968Z,6.20
2023-04-15T06:18:15.665Z,6.20
2023-04-15T06:21:17.454Z,6.10
2023-04-15T06:24:19.270Z,6.10
2023-04-15T06:27:21.356Z,6.10
2023-04-15T06:30:24.397Z,6.10
2023-04-15T06:33:26.360Z,6.20
2023-04-15T06:36:28.165Z,6.20
2023-04-15T06:40:03.911Z,6.10
2023-04-15T06:43:05.649Z,6.20
2023-04-15T06:46:07.407Z,6.20
2023-04-15T06:49:09.171Z,6.10
2023-04-15T06:52:11.364Z,6.10
2023-04-15T06:55:13.187Z,6.10
2023-04-15T06:58:14.879Z,6.10
2023-04-15T07:01:16.642Z,6.30
2023-04-15T07:04:18.655Z,6.30
2023-04-15T07:07:20.646Z,6.30
2023-04-15T07:10:23.874Z,6.30
2023-04-15T07:13:26.465Z,6.30
2023-04-15T07:16:29.775Z,6.20
2023-04-15T07:19:31.691Z,6.30
2023-04-15T07:22:33.989Z,6.20
2023-04-15T07:25:35.737Z,6.20
2023-04-15T07:28:37.429Z,6.30
2023-04-15T07:31:40.783Z,6.30
2023-04-15T07:34:43.096Z,6.30
2023-04-15T07:37:44.894Z,6.30
2023-04-15T07:40:47.087Z,6.30
2023-04-15T07:43:48.940Z,6.30
2023-04-15T07:46:50.646Z,6.30
2023-04-15T07:49:52.866Z,6.40
2023-04-15T07:52:54.619Z,6.30
2023-04-15T07:55:56.364Z,6.40
2023-04-15T07:59:04.730Z,6.50
2023-04-15T08:02:06.950Z,6.50
2023-04-15T08:05:10.714Z,6.50
2023-04-15T08:08:12.893Z,6.40
2023-04-15T08:11:14.977Z,6.40
2023-04-15T08:14:16.923Z,6.40
2023-04-15T08:17:18.613Z,6.40
2023-04-15T08:20:20.672Z,6.40
2023-04-15T08:23:22.594Z,6.40
2023-04-15T08:26:24.370Z,6.50
2023-04-15T08:29:26.110Z,6.50
2023-04-15T08:32:27.935Z,6.50
2023-04-15T08:35:29.653Z,6.50
2023-04-15T08:38:31.386Z,6.50
2023-04-15T08:41:44.824Z,6.50
2023-04-15T08:44:47.780Z,6.50
2023-04-15T08:47:54.193Z,6.50
2023-04-15T08:50:56.168Z,6.50
2023-04-15T08:53:58.204Z,6.50
2023-04-15T08:57:00.003Z,6.50
2023-04-15T09:00:06.523Z,6.50
2023-04-15T09:03:09.424Z,6.50
2023-04-15T09:06:12.316Z,6.50
2023-04-15T09:09:14.596Z,6.50
2023-04-15T09:12:17.280Z,6.50
2023-04-15T09:15:19.595Z,6.40
2023-04-15T09:18:32.171Z,6.40
2023-04-15T09:21:34.604Z,6.50
2023-04-15T09:24:38.751Z,6.50
2023-04-15T09:27:51.166Z,6.50
2023-04-15T09:30:57.070Z,6.60
2023-04-15T09:33:59.116Z,6.60
2023-04-15T09:37:00.974Z,6.50
2023-04-15T09:40:02.840Z,6.60
2023-04-15T09:43:06.251Z,6.60
2023-04-15T09:46:08.073Z,6.60
2023-04-15T09:49:11.449Z,6.60
2023-04-15T09:52:14.166Z,6.60
2023-04-15T09:55:18.212Z,6.60
2023-04-15T09:58:28.321Z,6.60
2023-04-15T10:01:30.675Z,6.60
2023-04-15T10:04:36.340Z,6.60
2023-04-15T10:07:41.075Z,6.60
2023-04-15T10:10:42.950Z,6.70
2023-04-15T10:13:45.531Z,6.70
2023-04-15T10:16:49.082Z,6.70
2023-04-15T10:19:54.121Z,6.70
2023-04-15T10:22:56.437Z,6.70
2023-04-15T10:25:59.692Z,6.60
2023-04-15T10:29:02.516Z,6.70
2023-04-15T10:32:05.457Z,6.70
2023-04-15T10:35:09.456Z,6.70
2023-04-15T10:38:33.894Z,6.70
2023-04-15T10:41:36.336Z,6.70
2023-04-15T10:44:39.145Z,6.70
2023-04-15T10:47:43.314Z,6.70
2023-04-15T10:51:01.350Z,6.70
2023-04-15T10:54:03.098Z,6.70
2023-04-15T10:57:04.766Z,6.80
2023-04-15T11:00:10.350Z,6.80
2023-04-15T11:03:12.663Z,6.80
2023-04-15T11:06:14.415Z,6.90
2023-04-15T11:09:33.100Z,6.80
2023-04-15T11:12:36.442Z,6.90
2023-04-15T11:15:41.671Z,6.90
2023-04-15T11:18:56.545Z,7.00
2023-04-15T11:22:06.526Z,6.90
2023-04-15T11:25:08.284Z,7.00
2023-04-15T11:28:10.912Z,7.00
2023-04-15T11:31:18.123Z,7.00
2023-04-15T11:34:34.164Z,7.00
2023-04-15T11:37:37.307Z,7.00
2023-04-15T11:40:40.272Z,6.90
2023-04-15T11:43:42.554Z,7.00
2023-04-15T11:46:45.634Z,7.00
2023-04-15T11:49:47.390Z,7.00
2023-04-15T11:52:59.893Z,7.00
2023-04-15T11:56:01.900Z,7.00
2023-04-15T11:59:04.329Z,7.00
2023-04-15T12:02:12.981Z,7.10
2023-04-15T12:05:14.733Z,7.10
2023-04-15T12:08:16.981Z,7.10
2023-04-15T12:11:27.712Z,7.10
2023-04-15T12:14:31.371Z,7.10
2023-04-15T12:17:51.494Z,7.10
2023-04-15T12:20:54.634Z,7.00
2023-04-15T12:23:57.624Z,7.00
2023-04-15T12:27:06.563Z,7.10
2023-04-15T12:30:08.931Z,7.10
2023-04-15T12:33:10.634Z,7.10
2023-04-15T12:36:12.720Z,7.10
2023-04-15T12:39:14.627Z,7.10
2023-04-15T12:42:17.854Z,7.00
2023-04-15T12:45:19.545Z,7.10
2023-04-15T12:48:21.503Z,7.10
2023-04-15T12:51:23.263Z,7.10
2023-04-15T12:54:24.949Z,7.10
2023-04-15T12:57:28.089Z,7.10
2023-04-15T13:00:30.014Z,7.00
2023-04-15T13:03:31.916Z,7.10
2023-04-15T13:06:33.919Z,7.10
2023-04-15T13:09:35.602Z,7.10
2023-04-15T13:12:37.365Z,7.20
2023-04-15T13:15:39.229Z,7.20
2023-04-15T13:18:41.065Z,7.20
2023-04-15T13:21:42.784Z,7.20
2023-04-15T13:24:44.480Z,7.20
2023-04-15T13:27:46.642Z,7.20
2023-04-15T13:30:49.345Z,7.20
2023-04-15T13:33:51.116Z,7.20
2023-04-15T13:36:52.981Z,7.20
2023-04-15T13:39:55.583Z,7.20
2023-04-15T13:42:58.610Z,7.20
2023-04-15T13:46:00.659Z,7.30
2023-04-15T13:49:02.381Z,7.20
2023-04-15T13:52:04.299Z,7.30
2023-04-15T13:55:18.144Z,7.30
2023-04-15T13:58:22.410Z,7.30
2023-04-15T14:01:24.665Z,7.30
2023-04-15T14:04:26.482Z,7.40
2023-04-15T14:07:29.845Z,7.40
2023-04-15T14:10:31.605Z,7.40
2023-04-15T14:13:33.303Z,7.40
2023-04-15T14:16:35.356Z,7.40
2023-04-15T14:19:37.077Z,7.50
2023-04-15T14:22:38.767Z,7.50
2023-04-15T14:25:40.488Z,7.60
2023-04-15T14:28:44.893Z,7.50
2023-04-15T14:32:04.239Z,7.60
2023-04-15T14:35:08.730Z,7.60
2023-04-15T14:38:11.522Z,7.70
2023-04-15T14:41:13.493Z,7.70
2023-04-15T14:44:15.297Z,7.70
2023-04-15T14:47:17.443Z,7.70
2023-04-15T14:50:19.565Z,7.70
2023-04-15T14:53:21.395Z,7.80
2023-04-15T14:56:23.092Z,7.80
2023-04-15T14:59:24.867Z,7.80
2023-04-15T15:02:38.225Z,7.80
2023-04-15T15:05:43.249Z,7.80
2023-04-15T15:08:46.131Z,7.90
2023-04-15T15:11:47.872Z,7.90
2023-04-15T15:14:49.570Z,7.90
2023-04-15T15:17:51.350Z,7.90
2023-04-15T15:20:53.048Z,8.00
2023-04-15T15:23:54.740Z,8.00
2023-04-15T15:26:57.231Z,8.00
2023-04-15T15:29:58.983Z,8.00
2023-04-15T15:33:00.694Z,8.10
2023-04-15T15:36:03.929Z,8.00
2023-04-15T15:39:06.078Z,8.10
2023-04-15T15:42:08.048Z,8.00
2023-04-15T15:45:10.193Z,8.00
2023-04-15T15:48:11.985Z,8.00
2023-04-15T15:51:55.439Z,8.00
2023-04-15T15:54:57.150Z,8.00
2023-04-15T15:57:58.893Z,8.00
2023-04-15T16:01:10.999Z,8.10
2023-04-15T16:04:13.126Z,8.10
2023-04-15T16:07:15.854Z,8.20
2023-04-15T16:10:17.652Z,8.10
2023-04-15T16:13:19.429Z,8.10
2023-04-15T16:16:21.992Z,8.10
2023-04-15T16:19:23.737Z,8.20
2023-04-15T16:22:45.541Z,8.20
2023-04-15T16:25:47.342Z,8.10
2023-04-15T16:28:49.153Z,8.10
2023-04-15T16:31:51.113Z,8.20
2023-04-15T16:34:53.230Z,8.40
2023-04-15T16:37:54.900Z,8.30
2023-04-15T16:40:59.987Z,8.20
2023-04-15T16:44:03.312Z,8.20
2023-04-15T16:47:05.640Z,8.10
2023-04-15T16:50:08.112Z,8.10
2023-04-15T16:53:10.014Z,8.10
2023-04-15T16:56:11.780Z,8.10
2023-04-15T16:59:13.498Z,8.20
2023-04-15T17:02:15.719Z,8.10
2023-04-15T17:05:17.707Z,8.20
2023-04-15T17:08:19.502Z,8.20
2023-04-15T17:11:21.209Z,8.20
2023-04-15T17:14:23.050Z,8.20
2023-04-15T17:17:24.823Z,8.20
2023-04-15T17:20:26.764Z,8.20
2023-04-15T17:23:28.470Z,8.30
2023-04-15T17:26:30.962Z,8.30
2023-04-15T17:29:33.247Z,8.20
2023-04-15T17:32:35.526Z,8.30
2023-04-15T17:35:37.316Z,8.30
2023-04-15T17:38:39.069Z,8.30
2023-04-15T17:41:40.896Z,8.30
2023-04-15T17:44:42.634Z,8.30
2023-04-15T17:47:44.750Z,8.40
2023-04-15T17:50:46.792Z,8.40
2023-04-15T17:54:17.524Z,8.40
2023-04-15T17:57:19.246Z,8.40
2023-04-15T18:00:22.075Z,8.40
2023-04-15T18:03:24.038Z,8.40
2023-04-15T18:06:27.172Z,8.50
2023-04-15T18:09:28.830Z,8.40
2023-04-15T18:12:30.555Z,8.40
2023-04-15T18:15:33.020Z,8.50
2023-04-15T18:18:42.479Z,8.50
2023-04-15T18:21:46.170Z,8.50
2023-04-15T18:24:49.915Z,8.50
2023-04-15T18:27:51.717Z,8.50
2023-04-15T18:31:29.773Z,8.50
2023-04-15T18:34:31.552Z,8.60
2023-04-15T18:37:33.384Z,8.60
2023-04-15T18:40:36.260Z,8.60
2023-04-15T18:43:38.310Z,8.60
2023-04-15T18:46:40.232Z,8.50
2023-04-15T18:49:42.165Z,8.50
2023-04-15T18:52:43.890Z,8.50
2023-04-15T18:55:45.645Z,8.50
2023-04-15T18:59:10.105Z,8.50
2023-04-15T19:02:09.189Z,8.50
2023-04-15T19:05:11.208Z,8.60
2023-04-15T19:08:30.657Z,8.60
2023-04-15T19:11:32.394Z,8.60
2023-04-15T19:14:34.141Z,8.60
2023-04-15T19:17:35.945Z,8.60
2023-04-15T19:20:40.014Z,8.60
2023-04-15T19:23:43.086Z,8.60
2023-04-15T19:26:47.444Z,8.60
2023-04-15T19:29:49.397Z,8.60
2023-04-15T19:32:51.264Z,8.60
2023-04-15T19:35:53.075Z,8.60
2023-04-15T19:38:54.798Z,8.60
2023-04-15T19:41:57.293Z,8.70
2023-04-15T19:44:59.020Z,8.70
2023-04-15T19:48:01.063Z,8.70
2023-04-15T19:51:02.823Z,8.70
2023-04-15T19:54:04.538Z,8.70
2023-04-15T19:57:06.479Z,8.70
2023-04-15T20:00:09.445Z,8.70
2023-04-15T20:03:11.349Z,8.70
2023-04-15T20:06:14.851Z,8.70
2023-04-15T20:09:16.818Z,8.70
2023-04-15T20:12:49.500Z,8.70
2023-04-15T20:15:41.120Z,8.70
2023-04-15T20:18:42.841Z,8.70
2023-04-15T20:21:45.438Z,8.70
2023-04-15T20:24:47.393Z,8.70
2023-04-15T20:27:49.124Z,8.70
2023-04-15T20:30:50.875Z,8.70
2023-04-15T20:33:53.156Z,8.80
2023-04-15T20:36:54.864Z,8.80
2023-04-15T20:39:56.628Z,8.70
2023-04-15T20:42:58.387Z,8.80
2023-04-15T20:46:21.368Z,8.80
2023-04-15T20:49:23.421Z,8.80
2023-04-15T20:52:25.085Z,8.80
2023-04-15T20:55:28.314Z,8.80
2023-04-15T20:58:31.397Z,8.80
2023-04-15T21:01:35.638Z,8.80
2023-04-15T21:09:21.789Z,8.80
2023-04-15T21:12:23.500Z,8.80
2023-04-15T21:15:31.148Z,8.80
2023-04-15T21:18:32.923Z,8.80
2023-04-15T21:21:34.799Z,8.80
2023-04-15T21:24:36.564Z,8.80
2023-04-15T21:27:38.303Z,8.80
2023-04-15T21:30:39.998Z,8.80
2023-04-15T21:33:41.813Z,8.80
2023-04-15T21:36:56.884Z,8.80
2023-04-15T21:39:58.605Z,8.80
2023-04-15T21:43:00.302Z,8.80
2023-04-15T21:46:23.413Z,8.80
2023-04-15T21:49:25.445Z,8.80
2023-04-15T21:52:27.278Z,8.80
2023-04-15T21:55:28.949Z,8.80
2023-04-15T21:58:30.626Z,8.80
2023-04-15T22:01:32.426Z,8.80
2023-04-15T22:04:34.202Z,8.80
2023-04-15T22:07:36.412Z,8.80
2023-04-15T22:10:39.007Z,8.70
2023-04-15T22:13:40.938Z,8.80
2023-04-15T22:16:42.743Z,8.80
2023-04-15T22:19:45.278Z,8.80
2023-04-15T22:22:46.946Z,8.80
2023-04-15T22:30:20.140Z,8.80
2023-04-15T22:33:21.911Z,8.80
2023-04-15T22:36:25.127Z,8.80
2023-04-15T22:39:26.940Z,8.70
2023-04-15T22:42:28.662Z,8.80
2023-04-15T22:45:30.327Z,8.80
2023-04-15T22:48:32.039Z,8.80
2023-04-15T22:51:33.939Z,8.70
2023-04-15T22:54:35.664Z,8.70
2023-04-15T22:57:37.421Z,8.70
2023-04-15T23:00:39.221Z,8.70
2023-04-15T23:03:57.123Z,8.70
2023-04-15T23:07:04.065Z,8.70
2023-04-15T23:10:06.468Z,8.70
2023-04-15T23:13:08.192Z,8.70
2023-04-15T23:16:10.017Z,8.70
2023-04-15T23:19:11.978Z,8.70
2023-04-15T23:22:13.967Z,8.70
2023-04-15T23:25:15.717Z,8.70
2023-04-15T23:28:17.551Z,8.70
2023-04-15T23:31:19.268Z,8.70
2023-04-15T23:34:20.989Z,8.70
2023-04-15T23:37:22.681Z,8.70
2023-04-15T23:40:24.384Z,8.60
2023-04-15T23:43:26.097Z,8.60
2023-04-15T23:46:27.969Z,8.60
2023-04-15T23:49:29.912Z,8.60
2023-04-15T23:52:31.673Z,8.60
2023-04-15T23:55:33.379Z,8.60
2023-04-15T23:58:35.263Z,8.60
